createdAt,value
2022-09-27T00:01:03.653Z,1.30
2022-09-27T00:03:31.625Z,1.23
2022-09-27T00:06:05.293Z,1.05
2022-09-27T00:08:33.502Z,1.08
2022-09-27T00:11:02.106Z,1.17
2022-09-27T00:13:31.386Z,1.20
2022-09-27T00:15:59.432Z,1.10
2022-09-27T00:18:27.381Z,1.30
2022-09-27T00:20:55.091Z,1.00
2022-09-27T00:23:22.853Z,1.02
2022-09-27T00:25:57.452Z,1.02
2022-09-27T00:28:27.617Z,1.10
2022-09-27T00:33:39.559Z,1.13
2022-09-27T00:36:11.742Z,1.33
2022-09-27T00:38:46.214Z,0.98
2022-09-27T00:41:21.600Z,1.00
2022-09-27T00:43:52.849Z,0.98
2022-09-27T00:46:25.263Z,0.88
2022-09-27T00:49:06.242Z,0.90
2022-09-27T00:51:40.521Z,0.90
2022-09-27T00:54:15.659Z,1.00
2022-09-27T00:56:49.458Z,1.10
2022-09-27T00:59:27.710Z,0.95
2022-09-27T01:01:58.943Z,0.80
2022-09-27T01:04:38.259Z,0.90
2022-09-27T01:07:06.489Z,0.90
2022-09-27T01:09:35.025Z,0.90
2022-09-27T01:12:07.104Z,1.00
2022-09-27T01:14:42.725Z,0.90
2022-09-27T01:17:21.243Z,1.00
2022-09-27T01:20:13.280Z,1.00
2022-09-27T01:22:45.981Z,0.90
2022-09-27T01:25:36.763Z,0.90
2022-09-27T01:28:17.771Z,0.93
2022-09-27T01:30:49.284Z,0.93
2022-09-27T01:33:34.976Z,1.10
2022-09-27T01:36:27.847Z,0.90
2022-09-27T01:39:12.311Z,0.85
2022-09-27T01:41:50.369Z,0.90
2022-09-27T01:44:23.497Z,0.80
2022-09-27T01:47:03.355Z,0.88
2022-09-27T01:49:37.226Z,0.90
2022-09-27T01:52:09.326Z,1.00
2022-09-27T01:54:39.344Z,0.90
2022-09-27T01:57:07.744Z,0.82
2022-09-27T01:59:37.978Z,0.70
2022-09-27T02:02:12.489Z,0.80
2022-09-27T02:04:41.457Z,0.90
2022-09-27T02:07:16.757Z,0.95
2022-09-27T02:09:48.843Z,1.13
2022-09-27T02:12:22.667Z,1.00
2022-09-27T02:14:54.323Z,1.00
2022-09-27T02:17:30.169Z,1.00
2022-09-27T02:20:04.528Z,1.10
2022-09-27T02:22:35.116Z,0.90
2022-09-27T02:25:07.341Z,1.15
2022-09-27T02:27:37.194Z,1.00
2022-09-27T02:30:15.926Z,1.20
2022-09-27T02:32:48.558Z,1.13
2022-09-27T02:35:21.754Z,1.00
2022-09-27T02:37:58.607Z,1.15
2022-09-27T02:40:41.861Z,1.10
2022-09-27T02:43:10.278Z,1.08
2022-09-27T02:45:44.186Z,1.10
2022-09-27T02:48:21.148Z,1.00
2022-09-27T02:51:07.781Z,1.27
2022-09-27T02:53:41.097Z,1.10
2022-09-27T02:56:11.920Z,1.00
2022-09-27T02:58:47.316Z,0.85
2022-09-27T03:01:18.960Z,1.10
2022-09-27T03:03:54.105Z,1.08
2022-09-27T03:06:28.105Z,0.90
2022-09-27T03:08:57.108Z,0.80
2022-09-27T03:11:25.362Z,1.08
2022-09-27T03:14:07.912Z,1.13
2022-09-27T03:16:41.933Z,0.93
2022-09-27T03:19:11.734Z,0.90
2022-09-27T03:21:40.222Z,1.00
2022-09-27T03:24:08.486Z,0.90
2022-09-27T03:26:36.566Z,0.90
2022-09-27T03:29:04.910Z,0.80
2022-09-27T03:31:35.979Z,1.10
2022-09-27T03:34:07.343Z,0.90
2022-09-27T03:36:39.908Z,0.90
2022-09-27T03:39:09.623Z,0.90
2022-09-27T03:41:40.048Z,1.05
2022-09-27T03:44:08.576Z,0.80
2022-09-27T03:46:37.918Z,0.80
2022-09-27T03:49:06.112Z,0.80
2022-09-27T03:51:37.952Z,1.00
2022-09-27T03:54:14.235Z,0.82
2022-09-27T03:56:42.411Z,0.82
2022-09-27T03:59:33.880Z,0.90
2022-09-27T04:02:02.174Z,0.82
2022-09-27T04:04:30.697Z,0.90
2022-09-27T04:07:09.469Z,0.70
2022-09-27T04:09:44.742Z,0.90
2022-09-27T04:12:13.114Z,0.82
2022-09-27T04:14:41.575Z,0.80
2022-09-27T04:17:09.837Z,0.98
2022-09-27T04:19:42.991Z,0.80
2022-09-27T04:22:12.362Z,0.85
2022-09-27T04:24:47.323Z,0.80
2022-09-27T04:27:18.775Z,0.80
2022-09-27T04:29:55.446Z,0.80
2022-09-27T04:32:44.948Z,0.85
2022-09-27T04:35:35.785Z,0.98
2022-09-27T04:38:19.969Z,0.70
2022-09-27T04:40:49.322Z,1.10
2022-09-27T04:43:17.069Z,1.00
2022-09-27T04:45:44.942Z,1.00
2022-09-27T04:48:12.754Z,0.80
2022-09-27T04:50:41.251Z,0.90
2022-09-27T04:53:09.116Z,0.90
2022-09-27T04:55:36.792Z,0.77
2022-09-27T04:58:06.094Z,0.88
2022-09-27T05:00:33.786Z,1.00
2022-09-27T05:03:01.579Z,0.70
2022-09-27T05:05:29.418Z,0.95
2022-09-27T05:07:57.118Z,1.00
2022-09-27T05:10:24.763Z,1.00
2022-09-27T05:12:52.446Z,1.00
2022-09-27T05:15:21.450Z,0.90
2022-09-27T05:17:49.161Z,1.10
2022-09-27T05:20:16.964Z,0.90
2022-09-27T05:22:44.679Z,1.02
2022-09-27T05:25:12.384Z,1.20
2022-09-27T05:27:40.119Z,0.98
2022-09-27T05:30:08.530Z,1.10
2022-09-27T05:32:37.800Z,1.00
2022-09-27T05:35:06.244Z,1.10
2022-09-27T05:37:34.224Z,1.02
2022-09-27T05:40:12.213Z,1.10
2022-09-27T05:42:50.464Z,1.10
2022-09-27T05:45:18.128Z,0.93
2022-09-27T05:47:54.651Z,1.10
2022-09-27T05:50:22.315Z,0.90
2022-09-27T05:52:50.234Z,1.25
2022-09-27T05:55:17.900Z,1.02
2022-09-27T05:57:57.406Z,1.00
2022-09-27T06:00:25.989Z,1.00
2022-09-27T06:02:58.899Z,0.93
2022-09-27T06:05:27.564Z,1.00
2022-09-27T06:07:59.511Z,1.20
2022-09-27T06:10:27.270Z,1.00
2022-09-27T06:12:55.954Z,1.35
2022-09-27T06:15:23.711Z,1.30
2022-09-27T06:17:51.394Z,1.40
2022-09-27T06:20:20.716Z,1.20
2022-09-27T06:22:48.440Z,1.20
2022-09-27T06:25:16.814Z,1.10
2022-09-27T06:27:44.537Z,1.00
2022-09-27T06:30:15.817Z,1.13
2022-09-27T06:32:45.867Z,1.10
2022-09-27T06:35:13.562Z,1.10
2022-09-27T06:37:42.916Z,1.10
2022-09-27T06:40:11.145Z,1.35
2022-09-27T06:42:40.359Z,1.20
2022-09-27T06:45:08.804Z,1.20
2022-09-27T06:47:36.862Z,1.10
2022-09-27T06:50:05.952Z,1.10
2022-09-27T06:52:33.662Z,1.00
2022-09-27T06:55:02.666Z,1.70
2022-09-27T06:57:56.397Z,1.80
2022-09-27T07:00:27.592Z,3.30
2022-09-27T07:02:58.520Z,2.65
2022-09-27T07:05:26.708Z,2.90
2022-09-27T07:07:57.628Z,2.33
2022-09-27T07:10:27.405Z,2.65
2022-09-27T07:12:55.138Z,2.50
2022-09-27T07:15:23.290Z,2.58
2022-09-27T07:17:57.243Z,2.22
2022-09-27T07:20:25.001Z,1.90
2022-09-27T07:22:52.728Z,2.05
2022-09-27T07:25:20.400Z,1.80
2022-09-27T07:27:49.720Z,2.05
2022-09-27T07:30:17.522Z,2.17
2022-09-27T07:32:45.264Z,1.90
2022-09-27T07:35:15.086Z,1.92
2022-09-27T07:37:42.836Z,1.70
2022-09-27T07:40:10.936Z,1.90
2022-09-27T07:42:39.255Z,1.50
2022-09-27T07:45:09.844Z,1.63
2022-09-27T07:47:38.737Z,1.63
2022-09-27T07:50:06.615Z,1.30
2022-09-27T07:52:40.229Z,1.40
2022-09-27T07:55:08.788Z,1.60
2022-09-27T07:57:36.488Z,1.83
2022-09-27T08:00:04.689Z,1.50
2022-09-27T08:02:33.931Z,1.42
2022-09-27T08:05:01.672Z,1.40
2022-09-27T08:07:29.959Z,1.92
2022-09-27T08:09:57.606Z,2.10
2022-09-27T08:12:25.354Z,2.10
2022-09-27T08:14:53.148Z,1.65
2022-09-27T08:17:20.846Z,1.90
2022-09-27T08:19:49.933Z,1.42
2022-09-27T08:22:17.638Z,1.70
2022-09-27T08:24:45.387Z,1.60
2022-09-27T08:27:13.425Z,1.30
2022-09-27T08:29:42.075Z,1.67
2022-09-27T08:32:09.827Z,1.80
2022-09-27T08:34:37.527Z,1.20
2022-09-27T08:37:06.525Z,1.40
2022-09-27T08:39:34.211Z,1.50
2022-09-27T08:42:05.265Z,1.55
2022-09-27T08:47:00.607Z,1.30
2022-09-27T08:49:29.868Z,1.33
2022-09-27T08:51:57.528Z,1.50
2022-09-27T08:54:29.984Z,1.20
2022-09-27T08:57:00.027Z,1.40
2022-09-27T08:59:29.340Z,1.27
2022-09-27T09:01:57.051Z,1.63
2022-09-27T09:04:27.424Z,1.27
2022-09-27T09:06:59.917Z,1.70
2022-09-27T09:09:32.585Z,1.50
2022-09-27T09:12:19.738Z,1.33
2022-09-27T09:14:57.653Z,1.60
2022-09-27T09:17:30.348Z,1.60
2022-09-27T09:20:16.798Z,1.60
2022-09-27T09:22:54.131Z,1.27
2022-09-27T09:25:25.656Z,1.75
2022-09-27T09:28:02.273Z,1.63
2022-09-27T09:30:33.435Z,1.70
2022-09-27T09:33:10.111Z,1.83
2022-09-27T09:35:39.931Z,1.85
2022-09-27T09:38:10.559Z,1.98
2022-09-27T09:40:41.491Z,2.10
2022-09-27T09:43:11.780Z,2.80
2022-09-27T09:45:41.691Z,2.65
2022-09-27T09:48:12.291Z,2.70
2022-09-27T09:50:42.338Z,2.50
2022-09-27T09:55:42.565Z,3.58
2022-09-27T09:58:20.132Z,7.15
2022-09-27T10:00:47.972Z,8.52
2022-09-27T10:03:15.782Z,8.20
2022-09-27T10:05:44.361Z,14.43
2022-09-27T10:08:14.145Z,15.40
2022-09-27T10:10:43.216Z,15.55
2022-09-27T10:13:11.060Z,14.93
2022-09-27T10:15:38.716Z,12.60
2022-09-27T10:18:06.519Z,13.20
2022-09-27T10:20:35.146Z,12.40
2022-09-27T10:23:06.205Z,11.15
2022-09-27T10:25:48.372Z,9.15
2022-09-27T10:28:37.209Z,9.20
2022-09-27T10:31:06.167Z,8.40
2022-09-27T10:33:33.870Z,8.82
2022-09-27T10:36:02.057Z,7.53
2022-09-27T10:38:31.658Z,6.38
2022-09-27T10:41:17.957Z,6.50
2022-09-27T10:43:45.839Z,6.47
2022-09-27T10:46:26.662Z,6.28
2022-09-27T10:49:09.318Z,6.10
2022-09-27T10:51:37.010Z,7.55
2022-09-27T10:54:04.828Z,6.05
2022-09-27T10:56:34.810Z,6.13
2022-09-27T10:59:02.961Z,5.95
2022-09-27T11:01:40.288Z,5.30
2022-09-27T11:04:08.155Z,6.20
2022-09-27T11:06:38.248Z,5.25
2022-09-27T11:11:52.531Z,5.60
2022-09-27T11:14:21.944Z,6.77
2022-09-27T11:17:05.908Z,7.53
2022-09-27T11:19:44.606Z,6.72
2022-09-27T11:22:20.599Z,6.40
2022-09-27T11:24:55.750Z,6.60
2022-09-27T11:27:29.525Z,6.32
2022-09-27T11:30:04.519Z,6.30
2022-09-27T11:32:39.099Z,6.43
2022-09-27T11:35:15.508Z,6.50
2022-09-27T11:37:46.285Z,7.05
2022-09-27T11:40:23.577Z,6.10
2022-09-27T11:43:11.774Z,4.70
2022-09-27T11:49:02.947Z,4.10
2022-09-27T11:51:34.420Z,4.38
2022-09-27T11:54:08.046Z,5.28
2022-09-27T11:56:41.312Z,3.10
2022-09-27T11:59:31.742Z,4.13
2022-09-27T12:02:02.604Z,3.10
2022-09-27T12:04:52.974Z,3.83
2022-09-27T12:07:22.465Z,3.53
2022-09-27T12:09:51.926Z,3.55
2022-09-27T12:12:21.496Z,3.22
2022-09-27T12:14:51.632Z,3.20
2022-09-27T12:19:50.432Z,2.67
2022-09-27T12:22:34.614Z,2.90
2022-09-27T12:25:03.560Z,2.70
2022-09-27T12:27:36.277Z,2.95
2022-09-27T12:30:06.452Z,3.17
2022-09-27T12:35:04.764Z,2.95
2022-09-27T12:37:33.950Z,2.88
2022-09-27T12:40:02.903Z,2.77
2022-09-27T12:42:32.956Z,2.60
2022-09-27T12:45:00.647Z,2.55
2022-09-27T12:47:39.545Z,2.30
2022-09-27T12:50:11.149Z,2.20
2022-09-27T12:52:41.256Z,2.58
2022-09-27T12:57:52.919Z,2.30
2022-09-27T13:00:21.954Z,2.30
2022-09-27T13:03:32.492Z,2.30
2022-09-27T13:06:25.818Z,2.50
2022-09-27T13:09:04.457Z,2.20
2022-09-27T13:11:40.721Z,2.40
2022-09-27T13:14:11.515Z,2.45
2022-09-27T13:16:43.647Z,2.67
2022-09-27T13:19:39.384Z,2.10
2022-09-27T13:22:08.720Z,2.42
2022-09-27T13:24:48.149Z,2.40
2022-09-27T13:27:38.364Z,2.53
2022-09-27T13:30:48.596Z,1.98
2022-09-27T13:36:28.369Z,2.28
2022-09-27T13:39:15.798Z,2.35
2022-09-27T13:41:59.031Z,2.13
2022-09-27T13:44:27.542Z,2.28
2022-09-27T13:46:58.260Z,2.03
2022-09-27T13:49:29.218Z,2.22
2022-09-27T13:51:58.209Z,2.13
2022-09-27T13:54:41.971Z,2.22
2022-09-27T13:57:43.846Z,2.22
2022-09-27T14:00:12.869Z,2.13
2022-09-27T14:02:43.183Z,2.13
2022-09-27T14:05:11.071Z,2.08
2022-09-27T14:07:42.417Z,2.03
2022-09-27T14:10:14.250Z,2.00
2022-09-27T14:12:41.939Z,2.00
2022-09-27T14:15:10.535Z,1.85
2022-09-27T14:17:45.771Z,1.92
2022-09-27T14:20:33.030Z,1.75
2022-09-27T14:23:00.883Z,1.77
2022-09-27T14:25:29.902Z,2.20
2022-09-27T14:27:58.562Z,2.00
2022-09-27T14:30:27.762Z,1.98
2022-09-27T14:32:58.445Z,1.80
2022-09-27T14:35:40.514Z,2.10
2022-09-27T14:38:33.138Z,1.95
2022-09-27T14:41:02.522Z,1.90
2022-09-27T14:43:30.726Z,1.55
2022-09-27T14:45:59.254Z,1.90
2022-09-27T14:48:29.103Z,1.65
2022-09-27T14:51:04.770Z,1.70
2022-09-27T14:53:34.127Z,1.83
2022-09-27T14:56:03.571Z,1.70
2022-09-27T14:58:46.743Z,1.70
2022-09-27T15:01:16.533Z,1.70
2022-09-27T15:03:44.798Z,1.67
2022-09-27T15:06:12.617Z,1.70
2022-09-27T15:08:40.312Z,1.60
2022-09-27T15:11:10.783Z,1.65
2022-09-27T15:13:38.567Z,1.55
2022-09-27T15:16:09.203Z,1.50
2022-09-27T15:18:43.795Z,1.65
2022-09-27T15:21:12.407Z,1.50
2022-09-27T15:23:41.448Z,1.30
2022-09-27T15:26:12.857Z,1.83
2022-09-27T15:28:43.732Z,1.50
2022-09-27T15:31:11.460Z,1.55
2022-09-27T15:33:39.206Z,1.40
2022-09-27T15:36:08.014Z,1.70
2022-09-27T15:38:35.887Z,1.20
2022-09-27T15:41:15.065Z,1.40
2022-09-27T15:43:45.533Z,1.40
2022-09-27T15:46:35.106Z,1.52
2022-09-27T15:49:27.936Z,1.52
2022-09-27T15:51:56.056Z,1.35
2022-09-27T15:54:24.903Z,1.45
2022-09-27T15:56:56.007Z,1.30
2022-09-27T15:59:25.405Z,1.40
2022-09-27T16:01:56.047Z,1.55
2022-09-27T16:04:23.856Z,1.20
2022-09-27T16:06:51.761Z,1.17
2022-09-27T16:09:19.786Z,1.45
2022-09-27T16:11:47.897Z,1.45
2022-09-27T16:14:18.553Z,1.30
2022-09-27T16:16:47.282Z,1.00
2022-09-27T16:19:15.018Z,1.50
2022-09-27T16:21:43.792Z,1.25
2022-09-27T16:24:11.640Z,1.30
2022-09-27T16:26:39.540Z,1.20
2022-09-27T16:29:10.476Z,1.50
2022-09-27T16:31:39.931Z,1.30
2022-09-27T16:34:07.720Z,1.23
2022-09-27T16:36:36.021Z,1.17
2022-09-27T16:39:05.790Z,1.30
2022-09-27T16:41:34.077Z,1.25
2022-09-27T16:44:07.099Z,1.30
2022-09-27T16:46:35.610Z,1.20
2022-09-27T16:49:04.660Z,1.13
2022-09-27T16:51:49.663Z,1.00
2022-09-27T16:54:17.934Z,1.20
2022-09-27T16:56:46.028Z,1.10
2022-09-27T16:59:14.088Z,1.20
2022-09-27T17:01:41.830Z,1.20
2022-09-27T17:04:10.993Z,1.08
2022-09-27T17:06:38.774Z,1.10
2022-09-27T17:09:06.519Z,1.20
2022-09-27T17:11:34.204Z,1.15
2022-09-27T17:14:01.883Z,1.30
2022-09-27T17:16:29.622Z,1.50
2022-09-27T17:18:57.408Z,1.50
2022-09-27T17:21:26.410Z,1.40
2022-09-27T17:23:54.320Z,1.30
2022-09-27T17:26:22.569Z,1.20
2022-09-27T17:28:50.428Z,1.20
2022-09-27T17:31:18.986Z,1.33
2022-09-27T17:33:47.405Z,1.30
2022-09-27T17:36:17.311Z,1.40
2022-09-27T17:38:46.596Z,1.42
2022-09-27T17:41:15.108Z,1.50
2022-09-27T17:43:48.876Z,1.17
2022-09-27T17:46:17.300Z,1.35
2022-09-27T17:49:02.496Z,1.30
2022-09-27T17:51:31.272Z,1.10
2022-09-27T17:54:00.396Z,1.13
2022-09-27T17:56:28.056Z,1.23
2022-09-27T17:58:56.650Z,1.30
2022-09-27T18:01:25.242Z,1.38
2022-09-27T18:03:54.263Z,1.40
2022-09-27T18:06:21.986Z,1.80
2022-09-27T18:08:49.715Z,1.30
2022-09-27T18:11:19.582Z,1.20
2022-09-27T18:13:47.277Z,1.20
2022-09-27T18:16:16.662Z,1.30
2022-09-27T18:18:45.092Z,1.20
2022-09-27T18:21:14.223Z,1.08
2022-09-27T18:23:42.159Z,1.10
2022-09-27T18:26:10.300Z,1.00
2022-09-27T18:28:39.977Z,1.08
2022-09-27T18:31:09.222Z,1.00
2022-09-27T18:33:37.380Z,1.20
2022-09-27T18:36:06.021Z,1.30
2022-09-27T18:38:33.948Z,1.40
2022-09-27T18:41:06.516Z,1.30
2022-09-27T18:43:38.588Z,1.30
2022-09-27T18:46:33.845Z,1.40
2022-09-27T18:51:26.442Z,1.38
2022-09-27T18:53:55.247Z,1.50
2022-09-27T18:56:22.937Z,1.48
2022-09-27T18:58:51.163Z,1.65
2022-09-27T19:01:20.711Z,1.45
2022-09-27T19:03:48.974Z,1.40
2022-09-27T19:06:17.671Z,1.42
2022-09-27T19:08:45.443Z,1.60
2022-09-27T19:11:14.019Z,1.70
2022-09-27T19:13:50.283Z,1.50
2022-09-27T19:16:21.690Z,1.50
2022-09-27T19:18:49.559Z,1.83
2022-09-27T19:21:18.890Z,1.73
2022-09-27T19:23:46.652Z,1.80
2022-09-27T19:26:15.278Z,2.10
2022-09-27T19:28:43.813Z,1.80
2022-09-27T19:31:13.401Z,1.80
2022-09-27T19:33:42.486Z,2.05
2022-09-27T19:36:11.349Z,2.28
2022-09-27T19:38:39.295Z,2.80
2022-09-27T19:41:07.953Z,2.90
2022-09-27T19:43:35.640Z,3.03
2022-09-27T19:46:06.550Z,3.05
2022-09-27T19:48:34.366Z,2.83
2022-09-27T19:51:03.468Z,2.92
2022-09-27T19:53:32.367Z,2.63
2022-09-27T19:56:00.298Z,2.67
2022-09-27T19:58:28.412Z,3.03
2022-09-27T20:01:00.668Z,2.60
2022-09-27T20:03:28.683Z,2.50
2022-09-27T20:05:56.524Z,2.67
2022-09-27T20:08:25.588Z,2.92
2022-09-27T20:10:57.176Z,2.50
2022-09-27T20:13:24.975Z,3.00
2022-09-27T20:15:54.671Z,2.70
2022-09-27T20:18:22.506Z,2.70
2022-09-27T20:20:50.203Z,2.67
2022-09-27T20:23:20.041Z,3.03
2022-09-27T20:25:49.332Z,2.47
2022-09-27T20:28:17.016Z,2.83
2022-09-27T20:30:44.693Z,2.75
2022-09-27T20:33:29.790Z,2.53
2022-09-27T20:35:58.491Z,2.70
2022-09-27T20:38:26.215Z,3.03
2022-09-27T20:40:55.890Z,2.70
2022-09-27T20:43:26.434Z,3.00
2022-09-27T20:45:54.136Z,2.83
2022-09-27T20:48:21.826Z,2.40
2022-09-27T20:50:49.487Z,2.85
2022-09-27T20:53:17.168Z,3.20
2022-09-27T20:55:44.838Z,2.92
2022-09-27T20:58:13.842Z,3.10
2022-09-27T21:00:41.569Z,2.95
2022-09-27T21:03:09.297Z,3.15
2022-09-27T21:05:36.968Z,2.53
2022-09-27T21:08:04.673Z,3.10
2022-09-27T21:10:32.411Z,2.78
2022-09-27T21:13:00.123Z,2.85
2022-09-27T21:15:29.191Z,2.70
2022-09-27T21:17:57.741Z,2.78
2022-09-27T21:20:25.699Z,2.50
2022-09-27T21:22:53.395Z,2.63
2022-09-27T21:25:21.070Z,2.58
2022-09-27T21:27:53.405Z,3.00
2022-09-27T21:30:21.346Z,3.00
2022-09-27T21:32:53.785Z,3.28
2022-09-27T21:35:21.604Z,2.90
2022-09-27T21:37:49.310Z,2.70
2022-09-27T21:40:17.387Z,3.38
2022-09-27T21:42:45.157Z,2.70
2022-09-27T21:45:12.842Z,3.17
2022-09-27T21:47:40.546Z,3.08
2022-09-27T21:50:10.292Z,2.90
2022-09-27T21:52:37.990Z,2.85
2022-09-27T21:55:07.162Z,2.78
2022-09-27T21:57:35.279Z,2.90
2022-09-27T22:00:03.280Z,3.22
2022-09-27T22:02:31.077Z,2.45
2022-09-27T22:04:59.618Z,2.83
2022-09-27T22:07:28.666Z,2.80
2022-09-27T22:09:56.849Z,3.30
2022-09-27T22:12:24.604Z,2.90
2022-09-27T22:14:52.275Z,2.95
2022-09-27T22:17:19.999Z,2.55
2022-09-27T22:19:47.840Z,2.72
2022-09-27T22:22:15.545Z,2.80
2022-09-27T22:24:44.571Z,2.50
2022-09-27T22:27:12.272Z,2.63
2022-09-27T22:29:39.935Z,2.70
2022-09-27T22:32:07.636Z,2.67
2022-09-27T22:34:35.312Z,3.03
2022-09-27T22:37:03.123Z,2.60
2022-09-27T22:39:30.830Z,2.65
2022-09-27T22:41:59.941Z,2.65
2022-09-27T22:44:27.592Z,2.53
2022-09-27T22:46:55.657Z,2.53
2022-09-27T22:49:24.203Z,2.30
2022-09-27T22:51:51.894Z,2.35
2022-09-27T22:54:20.048Z,2.20
2022-09-27T22:56:47.778Z,2.40
2022-09-27T22:59:17.810Z,2.70
2022-09-27T23:04:14.104Z,2.20
2022-09-27T23:06:42.783Z,2.60
2022-09-27T23:09:10.847Z,2.00
2022-09-27T23:11:38.576Z,2.17
2022-09-27T23:14:06.406Z,2.60
2022-09-27T23:16:35.920Z,2.30
2022-09-27T23:19:03.849Z,2.10
2022-09-27T23:21:32.056Z,2.30
2022-09-27T23:24:01.534Z,2.00
2022-09-27T23:26:29.480Z,1.95
2022-09-27T23:28:57.786Z,1.98
2022-09-27T23:31:25.665Z,1.90
2022-09-27T23:33:54.685Z,1.92
2022-09-27T23:36:24.018Z,2.03
2022-09-27T23:38:51.714Z,1.83
2022-09-27T23:41:19.601Z,1.75
2022-09-27T23:43:48.429Z,2.03
2022-09-27T23:46:16.128Z,1.75
2022-09-27T23:48:44.588Z,1.90
2022-09-27T23:51:13.679Z,2.00
2022-09-27T23:53:41.480Z,1.70
2022-09-27T23:56:09.996Z,1.70
2022-09-27T23:58:38.260Z,1.80
